Time,TemperatureF,DewpointF,PressureIn,WindDirection,WindDirectionDegrees,WindSpeedMPH,WindSpeedGustMPH,Humidity,HourlyPrecipIn,Conditions,Clouds,dailyrainin,SolarRadiationWatts/m^2,SoftwareType,DateUTC
2013-08-21 00:22:00,53.0,43.0,-100.00,NW,307,0.0,3.0,68,0.00,,,0.00,0.000000,,2013-08-21 06:22:00,
2013-08-21 00:32:00,53.0,43.0,-100.00,NW,307,0.0,3.0,68,0.00,,,0.00,0.000000,,2013-08-21 06:32:00,
2013-08-21 00:42:00,53.0,43.0,-100.00,NW,307,0.0,3.0,68,0.00,,,0.00,0.000000,,2013-08-21 06:42:00,
2013-08-21 00:52:00,53.0,43.0,-100.00,NW,307,0.0,3.0,68,0.00,,,0.00,0.000000,,2013-08-21 06:52:00,
2013-08-21 01:22:00,52.0,45.0,-100.00,NNE,22,0.0,3.0,76,0.00,,,0.00,0.000000,,2013-08-21 07:22:00,
2013-08-21 01:32:00,52.0,45.0,-100.00,NNE,22,0.0,3.0,76,0.00,,,0.00,0.000000,,2013-08-21 07:32:00,
2013-08-21 01:42:00,52.0,45.0,-100.00,NNE,22,0.0,3.0,76,0.00,,,0.00,0.000000,,2013-08-21 07:42:00,
2013-08-21 01:53:00,52.0,45.0,-100.00,NNE,22,0.0,3.0,76,0.00,,,0.00,0.000000,,2013-08-21 07:53:00,
2013-08-21 02:22:00,50.0,42.0,-100.00,NNE,30,3.0,6.0,74,0.00,,,0.00,0.000000,,2013-08-21 08:22:00,
2013-08-21 02:32:00,50.0,42.0,-100.00,NNE,30,3.0,6.0,74,0.00,,,0.00,0.000000,,2013-08-21 08:32:00,
2013-08-21 02:52:00,50.0,42.0,-100.00,NNE,30,3.0,6.0,74,0.00,,,0.00,0.000000,,2013-08-21 08:52:00,
2013-08-21 03:22:00,51.0,43.0,-100.00,SE,136,2.0,5.0,74,0.00,,,0.00,0.000000,,2013-08-21 09:22:00,
2013-08-21 03:33:00,51.0,43.0,-100.00,SE,136,2.0,5.0,74,0.00,,,0.00,0.000000,,2013-08-21 09:33:00,
2013-08-21 03:53:00,51.0,43.0,-100.00,SE,136,2.0,5.0,74,0.00,,,0.00,0.000000,,2013-08-21 09:53:00,
2013-08-21 04:23:00,49.0,43.0,-100.00,NNE,12,3.0,5.0,81,0.00,,,0.00,0.000000,,2013-08-21 10:23:00,
2013-08-21 04:33:00,49.0,43.0,-100.00,NNE,12,3.0,5.0,81,0.00,,,0.00,0.000000,,2013-08-21 10:33:00,
2013-08-21 04:52:00,49.0,43.0,-100.00,NNE,12,3.0,5.0,81,0.00,,,0.00,0.000000,,2013-08-21 10:52:00,
2013-08-21 05:52:00,48.0,42.0,-100.00,West,275,3.0,4.0,81,0.00,,,0.00,0.000000,,2013-08-21 11:52:00,
2013-08-21 06:22:00,48.0,43.0,-100.00,ENE,63,0.0,4.0,84,0.00,,,0.00,0.000000,,2013-08-21 12:22:00,
2013-08-21 06:32:00,48.0,43.0,-100.00,ENE,63,0.0,4.0,84,0.00,,,0.00,0.000000,,2013-08-21 12:32:00,
2013-08-21 06:52:00,48.0,43.0,-100.00,ENE,63,0.0,4.0,84,0.00,,,0.00,0.000000,,2013-08-21 12:52:00,
2013-08-21 08:21:00,54.0,44.0,-100.00,NE,41,3.0,5.0,70,-99.99,,,0.00,144.000000,,2013-08-21 14:21:00,
2013-08-21 08:32:00,54.0,44.0,-100.00,NE,41,3.0,5.0,70,-99.99,,,0.00,144.000000,,2013-08-21 14:32:00,
2013-08-21 08:42:00,54.0,44.0,-100.00,NE,41,3.0,5.0,70,-99.99,,,0.00,144.000000,,2013-08-21 14:42:00,
2013-08-21 08:52:00,54.0,44.0,-100.00,NE,41,3.0,5.0,70,-99.99,,,0.00,144.000000,,2013-08-21 14:52:00,
2013-08-21 09:22:00,62.0,45.0,-100.00,NNW,339,2.0,4.0,54,0.00,,,-99.99,347.000000,,2013-08-21 15:22:00,
2013-08-21 09:34:00,62.0,45.0,-100.00,NNW,339,2.0,4.0,54,0.00,,,-99.99,347.000000,,2013-08-21 15:34:00,
2013-08-21 09:43:00,62.0,45.0,-100.00,NNW,339,2.0,4.0,54,0.00,,,-99.99,347.000000,,2013-08-21 15:43:00,
2013-08-21 09:54:00,62.0,45.0,-100.00,NNW,339,2.0,4.0,54,0.00,,,-99.99,347.000000,,2013-08-21 15:54:00,
2013-08-21 10:24:00,66.0,46.0,-100.00,WSW,240,3.0,9.0,48,0.00,,,0.00,491.000000,,2013-08-21 16:24:00,
2013-08-21 10:34:00,66.0,46.0,-100.00,WSW,240,3.0,9.0,48,0.00,,,0.00,491.000000,,2013-08-21 16:34:00,
2013-08-21 10:43:00,66.0,46.0,-100.00,WSW,240,3.0,9.0,48,0.00,,,0.00,491.000000,,2013-08-21 16:43:00,
2013-08-21 10:53:00,66.0,46.0,-100.00,WSW,240,3.0,9.0,48,0.00,,,0.00,491.000000,,2013-08-21 16:53:00,
2013-08-21 11:23:00,68.0,45.0,-100.00,South,172,7.0,12.0,43,0.00,,,0.00,614.000000,,2013-08-21 17:23:00,
2013-08-21 11:34:00,68.0,45.0,-100.00,South,172,7.0,12.0,43,0.00,,,0.00,614.000000,,2013-08-21 17:34:00,
2013-08-21 11:43:00,68.0,45.0,-100.00,South,172,7.0,12.0,43,0.00,,,0.00,614.000000,,2013-08-21 17:43:00,
2013-08-21 11:53:00,68.0,45.0,-100.00,South,172,7.0,12.0,43,0.00,,,0.00,614.000000,,2013-08-21 17:53:00,
2013-08-21 12:22:00,72.0,43.0,-100.00,SSW,200,7.0,14.0,35,0.00,,,0.00,796.000000,,2013-08-21 18:22:00,
2013-08-21 12:32:00,72.0,43.0,-100.00,SSW,200,7.0,14.0,35,0.00,,,0.00,796.000000,,2013-08-21 18:32:00,
2013-08-21 12:42:00,72.0,43.0,-100.00,SSW,200,7.0,14.0,35,0.00,,,0.00,796.000000,,2013-08-21 18:42:00,
2013-08-21 12:52:00,72.0,43.0,-100.00,SSW,200,7.0,14.0,35,0.00,,,0.00,796.000000,,2013-08-21 18:52:00,
2013-08-21 13:22:00,71.0,41.0,-100.00,SSE,165,7.0,15.0,34,0.00,,,0.00,669.000000,,2013-08-21 19:22:00,
2013-08-21 13:32:00,71.0,41.0,-100.00,SSE,165,7.0,15.0,34,0.00,,,0.00,669.000000,,2013-08-21 19:32:00,
2013-08-21 13:42:00,71.0,41.0,-100.00,SSE,165,7.0,15.0,34,0.00,,,0.00,669.000000,,2013-08-21 19:42:00,
2013-08-21 13:52:00,71.0,41.0,-100.00,SSE,165,7.0,15.0,34,0.00,,,0.00,669.000000,,2013-08-21 19:52:00,
2013-08-21 14:22:00,74.0,40.0,-100.00,WSW,258,5.0,11.0,29,0.00,,,0.00,479.000000,,2013-08-21 20:22:00,
2013-08-21 14:32:00,74.0,40.0,-100.00,WSW,258,5.0,11.0,29,0.00,,,0.00,479.000000,,2013-08-21 20:32:00,
2013-08-21 14:42:00,74.0,40.0,-100.00,WSW,258,5.0,11.0,29,0.00,,,0.00,479.000000,,2013-08-21 20:42:00,
2013-08-21 14:52:00,74.0,40.0,-100.00,WSW,258,5.0,11.0,29,0.00,,,0.00,479.000000,,2013-08-21 20:52:00,
2013-08-21 15:21:00,73.0,41.0,-100.00,NNE,27,6.0,15.0,31,0.00,,,-99.99,606.000000,,2013-08-21 21:21:00,
2013-08-21 15:34:00,73.0,41.0,-100.00,NNE,27,6.0,15.0,31,0.00,,,-99.99,606.000000,,2013-08-21 21:34:00,
2013-08-21 15:44:00,73.0,41.0,-100.00,NNE,27,6.0,15.0,31,0.00,,,-99.99,606.000000,,2013-08-21 21:44:00,
2013-08-21 15:54:00,73.0,41.0,-100.00,NNE,27,6.0,15.0,31,0.00,,,-99.99,606.000000,,2013-08-21 21:54:00,
2013-08-21 16:24:00,74.0,39.0,-100.00,SE,139,5.0,15.0,28,0.00,,,0.00,454.000000,,2013-08-21 22:24:00,
2013-08-21 16:34:00,74.0,39.0,-100.00,SE,139,5.0,15.0,28,0.00,,,0.00,454.000000,,2013-08-21 22:34:00,
2013-08-21 16:43:00,74.0,39.0,-100.00,SE,139,5.0,15.0,28,0.00,,,0.00,454.000000,,2013-08-21 22:43:00,
2013-08-21 16:53:00,74.0,39.0,-100.00,SE,139,5.0,15.0,28,0.00,,,0.00,454.000000,,2013-08-21 22:53:00,
2013-08-21 17:22:00,71.0,42.0,-100.00,South,178,4.0,11.0,35,0.00,,,0.00,191.000000,,2013-08-21 23:22:00,
2013-08-21 17:34:00,71.0,42.0,-100.00,South,178,4.0,11.0,35,0.00,,,0.00,191.000000,,2013-08-21 23:34:00,
2013-08-21 17:43:00,71.0,42.0,-100.00,South,178,4.0,11.0,35,0.00,,,0.00,191.000000,,2013-08-21 23:43:00,
2013-08-21 17:53:00,71.0,42.0,-100.00,South,178,4.0,11.0,35,0.00,,,0.00,191.000000,,2013-08-21 23:53:00,
2013-08-21 18:22:00,71.0,41.0,-100.00,SSE,153,4.0,9.0,34,0.00,,,0.00,131.000000,,2013-08-22 00:22:00,
2013-08-21 18:32:00,71.0,41.0,-100.00,SSE,153,4.0,9.0,34,0.00,,,0.00,131.000000,,2013-08-22 00:32:00,
2013-08-21 18:42:00,71.0,41.0,-100.00,SSE,153,4.0,9.0,34,0.00,,,0.00,131.000000,,2013-08-22 00:42:00,
2013-08-21 18:52:00,71.0,41.0,-100.00,SSE,153,4.0,9.0,34,0.00,,,0.00,131.000000,,2013-08-22 00:52:00,
2013-08-21 19:22:00,64.0,49.0,-100.00,North,2,3.0,11.0,59,0.00,,,0.00,50.000000,,2013-08-22 01:22:00,
2013-08-21 19:32:00,64.0,49.0,-100.00,North,2,3.0,11.0,59,0.00,,,0.00,50.000000,,2013-08-22 01:32:00,
2013-08-21 19:42:00,64.0,49.0,-100.00,North,2,3.0,11.0,59,0.00,,,0.00,50.000000,,2013-08-22 01:42:00,
2013-08-21 19:52:00,64.0,49.0,-100.00,North,2,3.0,11.0,59,0.00,,,0.00,50.000000,,2013-08-22 01:52:00,
2013-08-21 20:52:00,60.0,50.0,-100.00,South,169,2.0,5.0,70,0.00,,,0.00,24.000000,,2013-08-22 02:52:00,
2013-08-21 23:52:00,53.0,44.0,-100.00,NE,54,1.0,5.0,71,-99.99,,,0.00,0.000000,,2013-08-22 05:52:00,